CheckWX is a tool to help pilots better visualize weather data.  It is not intended as a substitute for an official pre-flight weather briefing.

13:56:53 UTC

2V5 METAR
Wray Municipal Airport
Wray, Colorado, USA
Current

22 mins ago

K2V5 261335Z AUTO 12007KT 10SM CLR 08/01 A3010 RMK AO2
Observed
Apr-26 @ 13:35 UTC
Wind
  • 120° at 7 KTS
Visibility
10 SM
Flight Rules
VFR
Cloud Levels
  • Clear skies
Temperature
C / 46°F
Dewpoint
C / 34°F
Humidity
62%
Altimeter
30.1" Hg
Pressure
1019.32 hPa
Previous

42 mins ago

K2V5 261315Z AUTO 11008KT 10SM CLR 07/01 A3010 RMK AO2
Observed
Apr-26 @ 13:15 UTC
Wind
  • 110° at 8 KTS
Visibility
10 SM
Flight Rules
VFR
Cloud Levels
  • Clear skies
Temperature
C / 45°F
Dewpoint
C / 34°F
Humidity
66%
Altimeter
30.1" Hg
Pressure
1019.32 hPa
Previous

1 hour ago

K2V5 261255Z AUTO 12008KT 10SM CLR 06/01 A3011 RMK AO2
Observed
Apr-26 @ 12:55 UTC
Wind
  • 120° at 8 KTS
Visibility
10 SM
Flight Rules
VFR
Cloud Levels
  • Clear skies
Temperature
C / 43°F
Dewpoint
C / 34°F
Humidity
71%
Altimeter
30.11" Hg
Pressure
1019.62 hPa